^^
Station Historical Data
Daily Summary for December 6, 2017 Units:  Both    English   Metric
« Previous Day
Next Day »
Daily Weekly Monthly Yearly Custom
  High: Low: Average:
Temperature: 81.0 °F /  27.2 °C 60.1 °F /  15.6 °C 71.2 °F /  21.8 °C
Dew Point: 68.8 °F /  20.4 °C 60.1 °F /  15.6 °C 64 °F /  17.8 °C
Humidity: 100% 50% 80%
Wind Speed: 0.0mph /  0km/h - 0mph /  0km/h
Wind Gust: 0.0mph /  0km/h - -
Wind- - North
Pressure: 30.15 in /  1020.9 hPa 30.03 in /  1016.8 hPa -
Precipitation: 0.00 in /  0 mm    
Historical Graphs
 
 
Tabular Data for December 6, 2017
Time Temperature Dew Point Pressure Wind Wind Speed Wind Gust Humidity Rainfall Rate (Hourly) solar Conditions
00:04 66.0 °F /  18.9 °C 66.0 °F /  18.9 °C 30.15in /  1020.9hPa Calm     100% 0.00in /  0mm 0.0 W/m2 OVC
00:09 66.0 °F /  18.9 °C 66.0 °F /  18.9 °C 30.15in /  1020.9hPa Calm     100% 0.00in /  0mm 0.0 W/m2 OVC
00:14 66.0 °F /  18.9 °C 66.0 °F /  18.9 °C 30.15in /  1020.9hPa Calm     100% 0.00in /  0mm 0.0 W/m2 OVC
00:19 66.0 °F /  18.9 °C 66.0 °F /  18.9 °C 30.15in /  1020.9hPa Calm     100% 0.00in /  0mm 0.0 W/m2 OVC
00:24 66.0 °F /  18.9 °C 66.0 °F /  18.9 °C 30.15in /  1020.9hPa Calm     100% 0.00in /  0mm 0.0 W/m2 OVC
00:29 66.0 °F /  18.9 °C 66.0 °F /  18.9 °C 30.15in /  1020.9hPa Calm     100% 0.00in /  0mm 0.0 W/m2 OVC
00:34 66.0 °F /  18.9 °C 66.0 °F /  18.9 °C 30.15in /  1020.9hPa Calm     100% 0.00in /  0mm 0.0 W/m2 OVC
00:39 66.0 °F /  18.9 °C 66.0 °F /  18.9 °C 30.15in /  1020.9hPa Calm     100% 0.00in /  0mm 0.0 W/m2 OVC
00:44 66.0 °F /  18.9 °C 66.0 °F /  18.9 °C 30.15in /  1020.9hPa Calm     100% 0.00in /  0mm 0.0 W/m2 OVC
00:49 66.0 °F /  18.9 °C 66.0 °F /  18.9 °C 30.15in /  1020.9hPa Calm     100% 0.00in /  0mm 0.0 W/m2 OVC
00:54 66.0 °F /  18.9 °C 66.0 °F /  18.9 °C 30.15in /  1020.9hPa Calm     100% 0.00in /  0mm 0.0 W/m2 OVC
00:59 66.0 °F /  18.9 °C 66.0 °F /  18.9 °C 30.15in /  1020.9hPa Calm     100% 0.00in /  0mm 0.0 W/m2 OVC
01:04 66.9 °F /  19.4 °C 65.7 °F /  18.7 °C 30.14in /  1020.5hPa Calm     96% 0.00in /  0mm 0.0 W/m2 OVC
01:09 66.9 °F /  19.4 °C 65.7 °F /  18.7 °C 30.14in /  1020.5hPa Calm     96% 0.00in /  0mm 0.0 W/m2 OVC
01:14 66.9 °F /  19.4 °C 65.7 °F /  18.7 °C 30.14in /  1020.5hPa Calm     96% 0.00in /  0mm 0.0 W/m2 OVC
01:19 66.9 °F /  19.4 °C 65.7 °F /  18.7 °C 30.14in /  1020.5hPa Calm     96% 0.00in /  0mm 0.0 W/m2 OVC
01:24 66.9 °F /  19.4 °C 65.7 °F /  18.7 °C 30.14in /  1020.5hPa Calm     96% 0.00in /  0mm 0.0 W/m2 OVC
01:29 66.9 °F /  19.4 °C 65.7 °F /  18.7 °C 30.14in /  1020.5hPa Calm     96% 0.00in /  0mm 0.0 W/m2 OVC
01:34 66.9 °F /  19.4 °C 65.7 °F /  18.7 °C 30.14in /  1020.5hPa Calm     96% 0.00in /  0mm 0.0 W/m2 OVC
01:39 66.9 °F /  19.4 °C 65.7 °F /  18.7 °C 30.14in /  1020.5hPa Calm     96% 0.00in /  0mm 0.0 W/m2 OVC
01:44 66.9 °F /  19.4 °C 65.7 °F /  18.7 °C 30.14in /  1020.5hPa Calm     96% 0.00in /  0mm 0.0 W/m2 OVC
01:49 66.9 °F /  19.4 °C 65.7 °F /  18.7 °C 30.14in /  1020.5hPa Calm     96% 0.00in /  0mm 0.0 W/m2 OVC
01:54 66.9 °F /  19.4 °C 65.7 °F /  18.7 °C 30.14in /  1020.5hPa Calm     96% 0.00in /  0mm 0.0 W/m2 OVC
01:59 66.9 °F /  19.4 °C 65.7 °F /  18.7 °C 30.14in /  1020.5hPa Calm     96% 0.00in /  0mm 0.0 W/m2 OVC
02:02 66.9 °F /  19.4 °C 66.9 °F /  19.4 °C 30.14in /  1020.5hPa Calm     100% 0.00in /  0mm 0.0 W/m2 FEW
02:07 66.9 °F /  19.4 °C 66.9 °F /  19.4 °C 30.14in /  1020.5hPa Calm     100% 0.00in /  0mm 0.0 W/m2 FEW
02:12 66.9 °F /  19.4 °C 66.9 °F /  19.4 °C 30.14in /  1020.5hPa Calm     100% 0.00in /  0mm 0.0 W/m2 FEW
02:17 66.9 °F /  19.4 °C 66.9 °F /  19.4 °C 30.14in /  1020.5hPa Calm     100% 0.00in /  0mm 0.0 W/m2 FEW
02:22 66.9 °F /  19.4 °C 66.9 °F /  19.4 °C 30.14in /  1020.5hPa Calm     100% 0.00in /  0mm 0.0 W/m2 FEW
02:27 66.9 °F /  19.4 °C 66.9 °F /  19.4 °C 30.14in /  1020.5hPa Calm     100% 0.00in /  0mm 0.0 W/m2 FEW
02:32 66.9 °F /  19.4 °C 66.9 °F /  19.4 °C 30.14in /  1020.5hPa Calm     100% 0.00in /  0mm 0.0 W/m2 FEW
02:42 66.9 °F /  19.4 °C 66.9 °F /  19.4 °C 30.14in /  1020.5hPa Calm     100% 0.00in /  0mm 0.0 W/m2 FEW
02:47 66.9 °F /  19.4 °C 66.9 °F /  19.4 °C 30.14in /  1020.5hPa Calm     100% 0.00in /  0mm 0.0 W/m2 FEW
02:52 66.9 °F /  19.4 °C 66.9 °F /  19.4 °C 30.14in /  1020.5hPa Calm     100% 0.00in /  0mm 0.0 W/m2 FEW
02:57 66.9 °F /  19.4 °C 66.9 °F /  19.4 °C 30.14in /  1020.5hPa Calm     100% 0.00in /  0mm 0.0 W/m2 FEW
03:02 64.9 °F /  18.3 °C 64.9 °F /  18.3 °C 30.13in /  1020.2hPa Calm     100% 0.00in /  0mm 0.0 W/m2 CLR
03:07 64.9 °F /  18.3 °C 64.9 °F /  18.3 °C 30.13in /  1020.2hPa Calm     100% 0.00in /  0mm 0.0 W/m2 CLR
03:12 64.9 °F /  18.3 °C 64.9 °F /  18.3 °C 30.13in /  1020.2hPa Calm     100% 0.00in /  0mm 0.0 W/m2 CLR
03:17 64.9 °F /  18.3 °C 64.9 °F /  18.3 °C 30.13in /  1020.2hPa Calm     100% 0.00in /  0mm 0.0 W/m2 CLR
03:22 64.9 °F /  18.3 °C 64.9 °F /  18.3 °C 30.13in /  1020.2hPa Calm     100% 0.00in /  0mm 0.0 W/m2 CLR
03:27 64.9 °F /  18.3 °C 64.9 °F /  18.3 °C 30.13in /  1020.2hPa Calm     100% 0.00in /  0mm 0.0 W/m2 CLR
03:32 64.9 °F /  18.3 °C 64.9 °F /  18.3 °C 30.13in /  1020.2hPa Calm     100% 0.00in /  0mm 0.0 W/m2 CLR
03:37 64.9 °F /  18.3 °C 64.9 °F /  18.3 °C 30.13in /  1020.2hPa Calm     100% 0.00in /  0mm 0.0 W/m2 CLR
03:38 64.9 °F /  18.3 °C 64.9 °F /  18.3 °C 30.13in /  1020.2hPa Calm     100% 0.00in /  0mm 0.0 W/m2 CLR
03:43 64.9 °F /  18.3 °C 64.9 °F /  18.3 °C 30.13in /  1020.2hPa Calm     100% 0.00in /  0mm 0.0 W/m2 CLR
03:48 64.9 °F /  18.3 °C 64.9 °F /  18.3 °C 30.13in /  1020.2hPa Calm     100% 0.00in /  0mm 0.0 W/m2 CLR
03:53 64.9 °F /  18.3 °C 64.9 °F /  18.3 °C 30.13in /  1020.2hPa Calm     100% 0.00in /  0mm 0.0 W/m2 CLR
03:58 64.9 °F /  18.3 °C 64.9 °F /  18.3 °C 30.13in /  1020.2hPa Calm     100% 0.00in /  0mm 0.0 W/m2 CLR
04:03 64.0 °F /  17.8 °C 64.0 °F /  17.8 °C 30.12in /  1019.9hPa Calm     100% 0.00in /  0mm 0.0 W/m2 CLR
04:07 64.0 °F /  17.8 °C 64.0 °F /  17.8 °C 30.12in /  1019.9hPa Calm     100% 0.00in /  0mm 0.0 W/m2 CLR
04:13 64.0 °F /  17.8 °C 64.0 °F /  17.8 °C 30.12in /  1019.9hPa Calm     100% 0.00in /  0mm 0.0 W/m2 CLR
04:18 64.0 °F /  17.8 °C 64.0 °F /  17.8 °C 30.12in /  1019.9hPa Calm     100% 0.00in /  0mm 0.0 W/m2 CLR
04:22 64.0 °F /  17.8 °C 64.0 °F /  17.8 °C 30.12in /  1019.9hPa Calm     100% 0.00in /  0mm 0.0 W/m2 CLR
04:28 64.0 °F /  17.8 °C 64.0 °F /  17.8 °C 30.12in /  1019.9hPa Calm     100% 0.00in /  0mm 0.0 W/m2 CLR
04:33 62.1 °F /  16.7 °C 62.1 °F /  16.7 °C 30.12in /  1019.9hPa Calm     100% 0.00in /  0mm 0.0 W/m2 CLR
04:38 62.1 °F /  16.7 °C 62.1 °F /  16.7 °C 30.12in /  1019.9hPa Calm     100% 0.00in /  0mm 0.0 W/m2 CLR
04:43 62.1 °F /  16.7 °C 62.1 °F /  16.7 °C 30.12in /  1019.9hPa Calm     100% 0.00in /  0mm 0.0 W/m2 CLR
04:48 62.1 °F /  16.7 °C 62.1 °F /  16.7 °C 30.12in /  1019.9hPa Calm     100% 0.00in /  0mm 0.0 W/m2 CLR
04:53 62.1 °F /  16.7 °C 62.1 °F /  16.7 °C 30.12in /  1019.9hPa Calm     100% 0.00in /  0mm 0.0 W/m2 CLR
04:58 62.1 °F /  16.7 °C 62.1 °F /  16.7 °C 30.12in /  1019.9hPa Calm     100% 0.00in /  0mm 0.0 W/m2 CLR
05:03 64.0 °F /  17.8 °C 64.0 °F /  17.8 °C 30.11in /  1019.5hPa Calm     100% 0.00in /  0mm 0.0 W/m2 CLR
05:08 64.0 °F /  17.8 °C 64.0 °F /  17.8 °C 30.11in /  1019.5hPa Calm     100% 0.00in /  0mm 0.0 W/m2 CLR
05:13 64.0 °F /  17.8 °C 64.0 °F /  17.8 °C 30.11in /  1019.5hPa Calm     100% 0.00in /  0mm 0.0 W/m2 CLR
05:18 64.0 °F /  17.8 °C 64.0 °F /  17.8 °C 30.11in /  1019.5hPa Calm     100% 0.00in /  0mm 0.0 W/m2 CLR
05:23 64.0 °F /  17.8 °C 64.0 °F /  17.8 °C 30.11in /  1019.5hPa Calm     100% 0.00in /  0mm 0.0 W/m2 CLR
05:28 64.0 °F /  17.8 °C 64.0 °F /  17.8 °C 30.11in /  1019.5hPa Calm     100% 0.00in /  0mm 0.0 W/m2 CLR
05:33 64.0 °F /  17.8 °C 64.0 °F /  17.8 °C 30.11in /  1019.5hPa Calm     100% 0.00in /  0mm 0.0 W/m2 CLR
05:38 64.0 °F /  17.8 °C 64.0 °F /  17.8 °C 30.11in /  1019.5hPa Calm     100% 0.00in /  0mm 0.0 W/m2 CLR
05:43 64.0 °F /  17.8 °C 64.0 °F /  17.8 °C 30.11in /  1019.5hPa Calm     100% 0.00in /  0mm 0.0 W/m2 CLR
05:47 64.0 °F /  17.8 °C 64.0 °F /  17.8 °C 30.11in /  1019.5hPa Calm     100% 0.00in /  0mm 0.0 W/m2 CLR
05:53 64.0 °F /  17.8 °C 64.0 °F /  17.8 °C 30.11in /  1019.5hPa Calm     100% 0.00in /  0mm 0.0 W/m2 CLR
05:58 64.0 °F /  17.8 °C 64.0 °F /  17.8 °C 30.11in /  1019.5hPa Calm     100% 0.00in /  0mm 0.0 W/m2 CLR
06:02 63.0 °F /  17.2 °C 63.0 °F /  17.2 °C 30.11in /  1019.5hPa Calm     100% 0.00in /  0mm 0.0 W/m2 CLR
06:08 63.0 °F /  17.2 °C 63.0 °F /  17.2 °C 30.11in /  1019.5hPa Calm     100% 0.00in /  0mm 0.0 W/m2 CLR
06:12 63.0 °F /  17.2 °C 63.0 °F /  17.2 °C 30.11in /  1019.5hPa Calm     100% 0.00in /  0mm 0.0 W/m2 CLR
06:18 63.0 °F /  17.2 °C 63.0 °F /  17.2 °C 30.11in /  1019.5hPa Calm     100% 0.00in /  0mm 0.0 W/m2 CLR
06:23 63.0 °F /  17.2 °C 63.0 °F /  17.2 °C 30.11in /  1019.5hPa Calm     100% 0.00in /  0mm 0.0 W/m2 CLR
06:28 63.0 °F /  17.2 °C 63.0 °F /  17.2 °C 30.11in /  1019.5hPa Calm     100% 0.00in /  0mm 0.0 W/m2 CLR
06:33 63.0 °F /  17.2 °C 63.0 °F /  17.2 °C 30.11in /  1019.5hPa Calm     100% 0.00in /  0mm 0.0 W/m2 CLR
06:38 63.0 °F /  17.2 °C 63.0 °F /  17.2 °C 30.11in /  1019.5hPa Calm     100% 0.00in /  0mm 0.0 W/m2 CLR
06:43 63.0 °F /  17.2 °C 63.0 °F /  17.2 °C 30.11in /  1019.5hPa Calm     100% 0.00in /  0mm 0.0 W/m2 CLR
06:48 63.0 °F /  17.2 °C 63.0 °F /  17.2 °C 30.11in /  1019.5hPa Calm     100% 0.00in /  0mm 0.0 W/m2 CLR
06:52 63.0 °F /  17.2 °C 63.0 °F /  17.2 °C 30.11in /  1019.5hPa Calm     100% 0.00in /  0mm 0.0 W/m2 CLR
06:58 63.0 °F /  17.2 °C 63.0 °F /  17.2 °C 30.11in /  1019.5hPa Calm     100% 0.00in /  0mm 0.0 W/m2 CLR
07:03 60.1 °F /  15.6 °C 60.1 °F /  15.6 °C 30.11in /  1019.5hPa Calm     100% 0.00in /  0mm 0.0 W/m2 CLR
07:08 60.1 °F /  15.6 °C 60.1 °F /  15.6 °C 30.11in /  1019.5hPa Calm     100% 0.00in /  0mm 0.0 W/m2 CLR
07:13 60.1 °F /  15.6 °C 60.1 °F /  15.6 °C 30.11in /  1019.5hPa Calm     100% 0.00in /  0mm 0.0 W/m2 CLR
07:18 60.1 °F /  15.6 °C 60.1 °F /  15.6 °C 30.11in /  1019.5hPa Calm     100% 0.00in /  0mm 0.0 W/m2 CLR
07:23 60.1 °F /  15.6 °C 60.1 °F /  15.6 °C 30.11in /  1019.5hPa Calm     100% 0.00in /  0mm 0.0 W/m2 CLR
07:28 60.1 °F /  15.6 °C 60.1 °F /  15.6 °C 30.11in /  1019.5hPa Calm     100% 0.00in /  0mm 0.0 W/m2 CLR
07:33 60.1 °F /  15.6 °C 60.1 °F /  15.6 °C 30.11in /  1019.5hPa Calm     100% 0.00in /  0mm 0.0 W/m2 CLR
07:38 60.1 °F /  15.6 °C 60.1 °F /  15.6 °C 30.11in /  1019.5hPa Calm     100% 0.00in /  0mm 0.0 W/m2 CLR
07:43 60.1 °F /  15.6 °C 60.1 °F /  15.6 °C 30.11in /  1019.5hPa Calm     100% 0.00in /  0mm 0.0 W/m2 CLR
07:44 60.1 °F /  15.6 °C 60.1 °F /  15.6 °C 30.11in /  1019.5hPa Calm     100% 0.00in /  0mm 0.0 W/m2 CLR
07:49 60.1 °F /  15.6 °C 60.1 °F /  15.6 °C 30.11in /  1019.5hPa Calm     100% 0.00in /  0mm 0.0 W/m2 CLR
07:54 60.1 °F /  15.6 °C 60.1 °F /  15.6 °C 30.11in /  1019.5hPa Calm     100% 0.00in /  0mm 0.0 W/m2 CLR
07:59 60.1 °F /  15.6 °C 60.1 °F /  15.6 °C 30.11in /  1019.5hPa Calm     100% 0.00in /  0mm 0.0 W/m2 CLR
08:04 63.0 °F /  17.2 °C 63.0 °F /  17.2 °C 30.11in /  1019.5hPa Calm     100% 0.00in /  0mm 0.0 W/m2 CLR
08:09 63.0 °F /  17.2 °C 63.0 °F /  17.2 °C 30.11in /  1019.5hPa Calm     100% 0.00in /  0mm 0.0 W/m2 CLR
08:14 63.0 °F /  17.2 °C 63.0 °F /  17.2 °C 30.11in /  1019.5hPa Calm     100% 0.00in /  0mm 0.0 W/m2 CLR
08:19 63.0 °F /  17.2 °C 63.0 °F /  17.2 °C 30.11in /  1019.5hPa Calm     100% 0.00in /  0mm 0.0 W/m2 CLR
08:24 63.0 °F /  17.2 °C 63.0 °F /  17.2 °C 30.11in /  1019.5hPa Calm     100% 0.00in /  0mm 0.0 W/m2 CLR
08:29 63.0 °F /  17.2 °C 63.0 °F /  17.2 °C 30.11in /  1019.5hPa Calm     100% 0.00in /  0mm 0.0 W/m2 CLR
08:34 63.0 °F /  17.2 °C 63.0 °F /  17.2 °C 30.11in /  1019.5hPa Calm     100% 0.00in /  0mm 0.0 W/m2 CLR
08:39 63.0 °F /  17.2 °C 63.0 °F /  17.2 °C 30.11in /  1019.5hPa Calm     100% 0.00in /  0mm 0.0 W/m2 CLR
08:44 63.0 °F /  17.2 °C 63.0 °F /  17.2 °C 30.11in /  1019.5hPa Calm     100% 0.00in /  0mm 0.0 W/m2 CLR
08:49 63.0 °F /  17.2 °C 63.0 °F /  17.2 °C 30.11in /  1019.5hPa Calm     100% 0.00in /  0mm 0.0 W/m2 CLR
08:54 63.0 °F /  17.2 °C 63.0 °F /  17.2 °C 30.11in /  1019.5hPa Calm     100% 0.00in /  0mm 0.0 W/m2 CLR
08:59 63.0 °F /  17.2 °C 63.0 °F /  17.2 °C 30.11in /  1019.5hPa Calm     100% 0.00in /  0mm 0.0 W/m2 CLR
09:04 70.0 °F /  21.1 °C 68.8 °F /  20.4 °C 30.12in /  1019.9hPa Calm     96% 0.00in /  0mm 0.0 W/m2 CLR
09:09 70.0 °F /  21.1 °C 68.8 °F /  20.4 °C 30.12in /  1019.9hPa Calm     96% 0.00in /  0mm 0.0 W/m2 CLR
09:14 70.0 °F /  21.1 °C 68.8 °F /  20.4 °C 30.12in /  1019.9hPa Calm     96% 0.00in /  0mm 0.0 W/m2 CLR
09:19 70.0 °F /  21.1 °C 68.8 °F /  20.4 °C 30.12in /  1019.9hPa Calm     96% 0.00in /  0mm 0.0 W/m2 CLR
09:24 70.0 °F /  21.1 °C 68.8 °F /  20.4 °C 30.12in /  1019.9hPa Calm     96% 0.00in /  0mm 0.0 W/m2 CLR
09:29 70.0 °F /  21.1 °C 68.8 °F /  20.4 °C 30.12in /  1019.9hPa Calm     96% 0.00in /  0mm 0.0 W/m2 CLR
09:34 70.0 °F /  21.1 °C 68.8 °F /  20.4 °C 30.12in /  1019.9hPa Calm     96% 0.00in /  0mm 0.0 W/m2 CLR
09:39 70.0 °F /  21.1 °C 68.8 °F /  20.4 °C 30.12in /  1019.9hPa Calm     96% 0.00in /  0mm 0.0 W/m2 CLR
09:44 70.0 °F /  21.1 °C 68.8 °F /  20.4 °C 30.12in /  1019.9hPa Calm     96% 0.00in /  0mm 0.0 W/m2 CLR
09:49 70.0 °F /  21.1 °C 68.8 °F /  20.4 °C 30.12in /  1019.9hPa Calm     96% 0.00in /  0mm 0.0 W/m2 CLR
09:54 70.0 °F /  21.1 °C 68.8 °F /  20.4 °C 30.12in /  1019.9hPa Calm     96% 0.00in /  0mm 0.0 W/m2 CLR
09:59 70.0 °F /  21.1 °C 68.8 °F /  20.4 °C 30.12in /  1019.9hPa Calm     96% 0.00in /  0mm 0.0 W/m2 CLR
10:04 75.0 °F /  23.9 °C 67.7 °F /  19.8 °C 30.14in /  1020.5hPa Calm     78% 0.00in /  0mm 0.0 W/m2 CLR
10:09 75.0 °F /  23.9 °C 67.7 °F /  19.8 °C 30.14in /  1020.5hPa Calm     78% 0.00in /  0mm 0.0 W/m2 CLR
10:10 75.0 °F /  23.9 °C 67.7 °F /  19.8 °C 30.14in /  1020.5hPa Calm     78% 0.00in /  0mm 0.0 W/m2 CLR
10:15 75.0 °F /  23.9 °C 67.7 °F /  19.8 °C 30.14in /  1020.5hPa Calm     78% 0.00in /  0mm 0.0 W/m2 CLR
10:20 75.0 °F /  23.9 °C 67.7 °F /  19.8 °C 30.14in /  1020.5hPa Calm     78% 0.00in /  0mm 0.0 W/m2 CLR
10:25 75.0 °F /  23.9 °C 67.7 °F /  19.8 °C 30.14in /  1020.5hPa Calm     78% 0.00in /  0mm 0.0 W/m2 CLR
10:30 75.0 °F /  23.9 °C 67.7 °F /  19.8 °C 30.14in /  1020.5hPa Calm     78% 0.00in /  0mm 0.0 W/m2 CLR
10:35 75.0 °F /  23.9 °C 67.7 °F /  19.8 °C 30.14in /  1020.5hPa Calm     78% 0.00in /  0mm 0.0 W/m2 CLR
10:40 75.0 °F /  23.9 °C 67.7 °F /  19.8 °C 30.14in /  1020.5hPa Calm     78% 0.00in /  0mm 0.0 W/m2 CLR
10:45 75.0 °F /  23.9 °C 67.7 °F /  19.8 °C 30.14in /  1020.5hPa Calm     78% 0.00in /  0mm 0.0 W/m2 CLR
10:50 75.0 °F /  23.9 °C 67.7 °F /  19.8 °C 30.14in /  1020.5hPa Calm     78% 0.00in /  0mm 0.0 W/m2 CLR
10:55 75.0 °F /  23.9 °C 67.7 °F /  19.8 °C 30.14in /  1020.5hPa Calm     78% 0.00in /  0mm 0.0 W/m2 CLR
11:00 75.0 °F /  23.9 °C 67.7 °F /  19.8 °C 30.14in /  1020.5hPa Calm     78% 0.00in /  0mm 0.0 W/m2 CLR
11:05 78.1 °F /  25.6 °C 66.7 °F /  19.3 °C 30.12in /  1019.9hPa Calm     68% 0.00in /  0mm 0.0 W/m2 CLR
11:10 78.1 °F /  25.6 °C 66.7 °F /  19.3 °C 30.12in /  1019.9hPa Calm     68% 0.00in /  0mm 0.0 W/m2 CLR
11:15 78.1 °F /  25.6 °C 66.7 °F /  19.3 °C 30.12in /  1019.9hPa Calm     68% 0.00in /  0mm 0.0 W/m2 CLR
11:20 78.1 °F /  25.6 °C 66.7 °F /  19.3 °C 30.12in /  1019.9hPa Calm     68% 0.00in /  0mm 0.0 W/m2 CLR
11:25 78.1 °F /  25.6 °C 66.7 °F /  19.3 °C 30.12in /  1019.9hPa Calm     68% 0.00in /  0mm 0.0 W/m2 CLR
11:30 78.1 °F /  25.6 °C 66.7 °F /  19.3 °C 30.12in /  1019.9hPa Calm     68% 0.00in /  0mm 0.0 W/m2 CLR
11:35 78.1 °F /  25.6 °C 66.7 °F /  19.3 °C 30.12in /  1019.9hPa Calm     68% 0.00in /  0mm 0.0 W/m2 CLR
11:40 78.1 °F /  25.6 °C 66.7 °F /  19.3 °C 30.12in /  1019.9hPa Calm     68% 0.00in /  0mm 0.0 W/m2 CLR
11:45 78.1 °F /  25.6 °C 66.7 °F /  19.3 °C 30.12in /  1019.9hPa Calm     68% 0.00in /  0mm 0.0 W/m2 CLR
11:50 78.1 °F /  25.6 °C 66.7 °F /  19.3 °C 30.12in /  1019.9hPa Calm     68% 0.00in /  0mm 0.0 W/m2 CLR
11:55 78.1 °F /  25.6 °C 66.7 °F /  19.3 °C 30.12in /  1019.9hPa Calm     68% 0.00in /  0mm 0.0 W/m2 CLR
12:00 78.1 °F /  25.6 °C 66.7 °F /  19.3 °C 30.12in /  1019.9hPa Calm     68% 0.00in /  0mm 0.0 W/m2 CLR
12:05 79.0 °F /  26.1 °C 65.8 °F /  18.8 °C 30.10in /  1019.2hPa Calm     64% 0.00in /  0mm 0.0 W/m2 FEW
12:10 79.0 °F /  26.1 °C 65.8 °F /  18.8 °C 30.10in /  1019.2hPa Calm     64% 0.00in /  0mm 0.0 W/m2 FEW
12:15 79.0 °F /  26.1 °C 65.8 °F /  18.8 °C 30.10in /  1019.2hPa Calm     64% 0.00in /  0mm 0.0 W/m2 FEW
12:20 79.0 °F /  26.1 °C 65.8 °F /  18.8 °C 30.10in /  1019.2hPa Calm     64% 0.00in /  0mm 0.0 W/m2 FEW
12:25 79.0 °F /  26.1 °C 65.8 °F /  18.8 °C 30.10in /  1019.2hPa Calm     64% 0.00in /  0mm 0.0 W/m2 FEW
12:30 79.0 °F /  26.1 °C 65.8 °F /  18.8 °C 30.10in /  1019.2hPa Calm     64% 0.00in /  0mm 0.0 W/m2 FEW
12:31 79.0 °F /  26.1 °C 65.8 °F /  18.8 °C 30.10in /  1019.2hPa Calm     64% 0.00in /  0mm 0.0 W/m2 FEW
12:36 79.0 °F /  26.1 °C 65.8 °F /  18.8 °C 30.10in /  1019.2hPa Calm     64% 0.00in /  0mm 0.0 W/m2 FEW
12:41 79.0 °F /  26.1 °C 65.8 °F /  18.8 °C 30.10in /  1019.2hPa Calm     64% 0.00in /  0mm 0.0 W/m2 FEW
12:46 79.0 °F /  26.1 °C 65.8 °F /  18.8 °C 30.10in /  1019.2hPa Calm     64% 0.00in /  0mm 0.0 W/m2 FEW
12:51 79.0 °F /  26.1 °C 65.8 °F /  18.8 °C 30.10in /  1019.2hPa Calm     64% 0.00in /  0mm 0.0 W/m2 FEW
12:56 79.0 °F /  26.1 °C 65.8 °F /  18.8 °C 30.10in /  1019.2hPa Calm     64% 0.00in /  0mm 0.0 W/m2 FEW
13:01 79.0 °F /  26.1 °C 65.8 °F /  18.8 °C 30.10in /  1019.2hPa Calm     64% 0.00in /  0mm 0.0 W/m2 FEW
13:06 80.1 °F /  26.7 °C 64.9 °F /  18.3 °C 30.06in /  1017.8hPa Calm     60% 0.00in /  0mm 0.0 W/m2 FEW
13:11 80.1 °F /  26.7 °C 64.9 °F /  18.3 °C 30.06in /  1017.8hPa Calm     60% 0.00in /  0mm 0.0 W/m2 FEW
13:16 80.1 °F /  26.7 °C 64.9 °F /  18.3 °C 30.06in /  1017.8hPa Calm     60% 0.00in /  0mm 0.0 W/m2 FEW
13:21 80.1 °F /  26.7 °C 64.9 °F /  18.3 °C 30.06in /  1017.8hPa Calm     60% 0.00in /  0mm 0.0 W/m2 FEW
13:26 80.1 °F /  26.7 °C 64.9 °F /  18.3 °C 30.06in /  1017.8hPa Calm     60% 0.00in /  0mm 0.0 W/m2 FEW
13:31 80.1 °F /  26.7 °C 64.9 °F /  18.3 °C 30.06in /  1017.8hPa Calm     60% 0.00in /  0mm 0.0 W/m2 FEW
13:36 80.1 °F /  26.7 °C 64.9 °F /  18.3 °C 30.06in /  1017.8hPa Calm     60% 0.00in /  0mm 0.0 W/m2 FEW
13:41 80.1 °F /  26.7 °C 64.9 °F /  18.3 °C 30.06in /  1017.8hPa Calm     60% 0.00in /  0mm 0.0 W/m2 FEW
13:46 80.1 °F /  26.7 °C 64.9 °F /  18.3 °C 30.06in /  1017.8hPa Calm     60% 0.00in /  0mm 0.0 W/m2 FEW
13:51 80.1 °F /  26.7 °C 64.9 °F /  18.3 °C 30.06in /  1017.8hPa Calm     60% 0.00in /  0mm 0.0 W/m2 FEW
13:56 80.1 °F /  26.7 °C 64.9 °F /  18.3 °C 30.06in /  1017.8hPa Calm     60% 0.00in /  0mm 0.0 W/m2 FEW
14:01 80.1 °F /  26.7 °C 64.9 °F /  18.3 °C 30.06in /  1017.8hPa Calm     60% 0.00in /  0mm 0.0 W/m2 FEW
14:06 81.0 °F /  27.2 °C 62.7 °F /  17.1 °C 30.04in /  1017.2hPa Calm     54% 0.00in /  0mm 0.0 W/m2 FEW
14:11 81.0 °F /  27.2 °C 62.7 °F /  17.1 °C 30.04in /  1017.2hPa Calm     54% 0.00in /  0mm 0.0 W/m2 FEW
14:16 81.0 °F /  27.2 °C 62.7 °F /  17.1 °C 30.04in /  1017.2hPa Calm     54% 0.00in /  0mm 0.0 W/m2 FEW
14:21 81.0 °F /  27.2 °C 62.7 °F /  17.1 °C 30.04in /  1017.2hPa Calm     54% 0.00in /  0mm 0.0 W/m2 FEW
14:26 81.0 °F /  27.2 °C 62.7 °F /  17.1 °C 30.04in /  1017.2hPa Calm     54% 0.00in /  0mm 0.0 W/m2 FEW
14:31 81.0 °F /  27.2 °C 62.7 °F /  17.1 °C 30.04in /  1017.2hPa Calm     54% 0.00in /  0mm 0.0 W/m2 FEW
14:36 81.0 °F /  27.2 °C 62.7 °F /  17.1 °C 30.04in /  1017.2hPa Calm     54% 0.00in /  0mm 0.0 W/m2 FEW
14:41 81.0 °F /  27.2 °C 62.7 °F /  17.1 °C 30.04in /  1017.2hPa Calm     54% 0.00in /  0mm 0.0 W/m2 FEW
14:46 81.0 °F /  27.2 °C 62.7 °F /  17.1 °C 30.04in /  1017.2hPa Calm     54% 0.00in /  0mm 0.0 W/m2 FEW
14:51 81.0 °F /  27.2 °C 62.7 °F /  17.1 °C 30.04in /  1017.2hPa Calm     54% 0.00in /  0mm 0.0 W/m2 FEW
14:56 81.0 °F /  27.2 °C 62.7 °F /  17.1 °C 30.04in /  1017.2hPa Calm     54% 0.00in /  0mm 0.0 W/m2 FEW
15:01 81.0 °F /  27.2 °C 62.7 °F /  17.1 °C 30.04in /  1017.2hPa Calm     54% 0.00in /  0mm 0.0 W/m2 FEW
15:06 81.0 °F /  27.2 °C 61.7 °F /  16.5 °C 30.03in /  1016.8hPa Calm     52% 0.00in /  0mm 0.0 W/m2 SCT
15:11 81.0 °F /  27.2 °C 61.7 °F /  16.5 °C 30.03in /  1016.8hPa Calm     52% 0.00in /  0mm 0.0 W/m2 SCT
15:16 81.0 °F /  27.2 °C 61.7 °F /  16.5 °C 30.03in /  1016.8hPa Calm     52% 0.00in /  0mm 0.0 W/m2 SCT
15:21 81.0 °F /  27.2 °C 61.7 °F /  16.5 °C 30.03in /  1016.8hPa Calm     52% 0.00in /  0mm 0.0 W/m2 SCT
15:26 81.0 °F /  27.2 °C 61.7 °F /  16.5 °C 30.03in /  1016.8hPa Calm     52% 0.00in /  0mm 0.0 W/m2 SCT
15:31 81.0 °F /  27.2 °C 61.7 °F /  16.5 °C 30.03in /  1016.8hPa Calm     52% 0.00in /  0mm 0.0 W/m2 SCT
15:36 81.0 °F /  27.2 °C 61.7 °F /  16.5 °C 30.03in /  1016.8hPa Calm     52% 0.00in /  0mm 0.0 W/m2 SCT
15:41 81.0 °F /  27.2 °C 61.7 °F /  16.5 °C 30.03in /  1016.8hPa Calm     52% 0.00in /  0mm 0.0 W/m2 SCT
15:46 81.0 °F /  27.2 °C 61.7 °F /  16.5 °C 30.03in /  1016.8hPa Calm     52% 0.00in /  0mm 0.0 W/m2 SCT
15:51 81.0 °F /  27.2 °C 61.7 °F /  16.5 °C 30.03in /  1016.8hPa Calm     52% 0.00in /  0mm 0.0 W/m2 SCT
15:56 81.0 °F /  27.2 °C 61.7 °F /  16.5 °C 30.03in /  1016.8hPa Calm     52% 0.00in /  0mm 0.0 W/m2 SCT
16:01 81.0 °F /  27.2 °C 60.6 °F /  15.9 °C 30.03in /  1016.8hPa Calm     50% 0.00in /  0mm 0.0 W/m2 CLR
16:06 81.0 °F /  27.2 °C 60.6 °F /  15.9 °C 30.03in /  1016.8hPa Calm     50% 0.00in /  0mm 0.0 W/m2 CLR
16:11 81.0 °F /  27.2 °C 60.6 °F /  15.9 °C 30.03in /  1016.8hPa Calm     50% 0.00in /  0mm 0.0 W/m2 CLR
16:16 81.0 °F /  27.2 °C 60.6 °F /  15.9 °C 30.03in /  1016.8hPa Calm     50% 0.00in /  0mm 0.0 W/m2 CLR
16:21 81.0 °F /  27.2 °C 60.6 °F /  15.9 °C 30.03in /  1016.8hPa Calm     50% 0.00in /  0mm 0.0 W/m2 CLR
16:26 81.0 °F /  27.2 °C 60.6 °F /  15.9 °C 30.03in /  1016.8hPa Calm     50% 0.00in /  0mm 0.0 W/m2 CLR
16:31 81.0 °F /  27.2 °C 60.6 °F /  15.9 °C 30.03in /  1016.8hPa Calm     50% 0.00in /  0mm 0.0 W/m2 CLR
16:36 81.0 °F /  27.2 °C 60.6 °F /  15.9 °C 30.03in /  1016.8hPa Calm     50% 0.00in /  0mm 0.0 W/m2 CLR
16:41 81.0 °F /  27.2 °C 60.6 °F /  15.9 °C 30.03in /  1016.8hPa Calm     50% 0.00in /  0mm 0.0 W/m2 CLR
16:46 81.0 °F /  27.2 °C 60.6 °F /  15.9 °C 30.03in /  1016.8hPa Calm     50% 0.00in /  0mm 0.0 W/m2 CLR
16:51 81.0 °F /  27.2 °C 60.6 °F /  15.9 °C 30.03in /  1016.8hPa Calm     50% 0.00in /  0mm 0.0 W/m2 CLR
16:56 81.0 °F /  27.2 °C 60.6 °F /  15.9 °C 30.03in /  1016.8hPa Calm     50% 0.00in /  0mm 0.0 W/m2 CLR
17:01 79.0 °F /  26.1 °C 61.9 °F /  16.6 °C 30.03in /  1016.8hPa Calm     56% 0.00in /  0mm 0.0 W/m2 CLR
17:06 79.0 °F /  26.1 °C 61.9 °F /  16.6 °C 30.03in /  1016.8hPa Calm     56% 0.00in /  0mm 0.0 W/m2 CLR
17:11 79.0 °F /  26.1 °C 61.9 °F /  16.6 °C 30.03in /  1016.8hPa Calm     56% 0.00in /  0mm 0.0 W/m2 CLR
17:16 79.0 °F /  26.1 °C 61.9 °F /  16.6 °C 30.03in /  1016.8hPa Calm     56% 0.00in /  0mm 0.0 W/m2 CLR
17:21 79.0 °F /  26.1 °C 61.9 °F /  16.6 °C 30.03in /  1016.8hPa Calm     56% 0.00in /  0mm 0.0 W/m2 CLR
17:26 79.0 °F /  26.1 °C 61.9 °F /  16.6 °C 30.03in /  1016.8hPa Calm     56% 0.00in /  0mm 0.0 W/m2 CLR
17:31 79.0 °F /  26.1 °C 61.9 °F /  16.6 °C 30.03in /  1016.8hPa Calm     56% 0.00in /  0mm 0.0 W/m2 CLR
17:36 79.0 °F /  26.1 °C 61.9 °F /  16.6 °C 30.03in /  1016.8hPa Calm     56% 0.00in /  0mm 0.0 W/m2 CLR
17:41 79.0 °F /  26.1 °C 61.9 °F /  16.6 °C 30.03in /  1016.8hPa Calm     56% 0.00in /  0mm 0.0 W/m2 CLR
17:46 79.0 °F /  26.1 °C 61.9 °F /  16.6 °C 30.03in /  1016.8hPa Calm     56% 0.00in /  0mm 0.0 W/m2 CLR
17:51 79.0 °F /  26.1 °C 61.9 °F /  16.6 °C 30.03in /  1016.8hPa Calm     56% 0.00in /  0mm 0.0 W/m2 CLR
17:56 79.0 °F /  26.1 °C 61.9 °F /  16.6 °C 30.03in /  1016.8hPa Calm     56% 0.00in /  0mm 0.0 W/m2 CLR
18:01 77.0 °F /  25 °C 61.6 °F /  16.4 °C 30.03in /  1016.8hPa Calm     59% 0.00in /  0mm 0.0 W/m2 CLR
18:06 77.0 °F /  25 °C 61.6 °F /  16.4 °C 30.03in /  1016.8hPa Calm     59% 0.00in /  0mm 0.0 W/m2 CLR
18:11 77.0 °F /  25 °C 61.6 °F /  16.4 °C 30.03in /  1016.8hPa Calm     59% 0.00in /  0mm 0.0 W/m2 CLR
18:16 77.0 °F /  25 °C 61.6 °F /  16.4 °C 30.03in /  1016.8hPa Calm     59% 0.00in /  0mm 0.0 W/m2 CLR
18:21 77.0 °F /  25 °C 61.6 °F /  16.4 °C 30.03in /  1016.8hPa Calm     59% 0.00in /  0mm 0.0 W/m2 CLR
18:26 77.0 °F /  25 °C 61.6 °F /  16.4 °C 30.03in /  1016.8hPa Calm     59% 0.00in /  0mm 0.0 W/m2 CLR
18:31 77.0 °F /  25 °C 61.6 °F /  16.4 °C 30.03in /  1016.8hPa Calm     59% 0.00in /  0mm 0.0 W/m2 CLR
18:36 77.0 °F /  25 °C 61.6 °F /  16.4 °C 30.03in /  1016.8hPa Calm     59% 0.00in /  0mm 0.0 W/m2 CLR
18:41 77.0 °F /  25 °C 61.6 °F /  16.4 °C 30.03in /  1016.8hPa Calm     59% 0.00in /  0mm 0.0 W/m2 CLR
18:46 77.0 °F /  25 °C 61.6 °F /  16.4 °C 30.03in /  1016.8hPa Calm     59% 0.00in /  0mm 0.0 W/m2 CLR
18:51 77.0 °F /  25 °C 61.6 °F /  16.4 °C 30.03in /  1016.8hPa Calm     59% 0.00in /  0mm 0.0 W/m2 CLR
18:56 77.0 °F /  25 °C 61.6 °F /  16.4 °C 30.03in /  1016.8hPa Calm     59% 0.00in /  0mm 0.0 W/m2 CLR
19:01 73.0 °F /  22.8 °C 62.7 °F /  17.1 °C 30.04in /  1017.2hPa Calm     70% 0.00in /  0mm 0.0 W/m2 CLR
19:06 73.0 °F /  22.8 °C 62.7 °F /  17.1 °C 30.04in /  1017.2hPa Calm     70% 0.00in /  0mm 0.0 W/m2 CLR
19:11 73.0 °F /  22.8 °C 62.7 °F /  17.1 °C 30.04in /  1017.2hPa Calm     70% 0.00in /  0mm 0.0 W/m2 CLR
19:16 73.0 °F /  22.8 °C 62.7 °F /  17.1 °C 30.04in /  1017.2hPa Calm     70% 0.00in /  0mm 0.0 W/m2 CLR
19:21 73.0 °F /  22.8 °C 62.7 °F /  17.1 °C 30.04in /  1017.2hPa Calm     70% 0.00in /  0mm 0.0 W/m2 CLR
19:26 73.0 °F /  22.8 °C 62.7 °F /  17.1 °C 30.04in /  1017.2hPa Calm     70% 0.00in /  0mm 0.0 W/m2 CLR
19:31 73.0 °F /  22.8 °C 62.7 °F /  17.1 °C 30.04in /  1017.2hPa Calm     70% 0.00in /  0mm 0.0 W/m2 CLR
19:36 73.0 °F /  22.8 °C 62.7 °F /  17.1 °C 30.04in /  1017.2hPa Calm     70% 0.00in /  0mm 0.0 W/m2 CLR
19:41 73.0 °F /  22.8 °C 62.7 °F /  17.1 °C 30.04in /  1017.2hPa Calm     70% 0.00in /  0mm 0.0 W/m2 CLR
19:46 73.0 °F /  22.8 °C 62.7 °F /  17.1 °C 30.04in /  1017.2hPa Calm     70% 0.00in /  0mm 0.0 W/m2 CLR
19:51 73.0 °F /  22.8 °C 62.7 °F /  17.1 °C 30.04in /  1017.2hPa Calm     70% 0.00in /  0mm 0.0 W/m2 CLR
19:56 73.0 °F /  22.8 °C 62.7 °F /  17.1 °C 30.04in /  1017.2hPa Calm     70% 0.00in /  0mm 0.0 W/m2 CLR
20:01 73.0 °F /  22.8 °C 63.9 °F /  17.7 °C 30.05in /  1017.5hPa Calm     73% 0.00in /  0mm 0.0 W/m2 CLR
20:06 73.0 °F /  22.8 °C 63.9 °F /  17.7 °C 30.05in /  1017.5hPa Calm     73% 0.00in /  0mm 0.0 W/m2 CLR
20:11 73.0 °F /  22.8 °C 63.9 °F /  17.7 °C 30.05in /  1017.5hPa Calm     73% 0.00in /  0mm 0.0 W/m2 CLR
20:16 73.0 °F /  22.8 °C 63.9 °F /  17.7 °C 30.05in /  1017.5hPa Calm     73% 0.00in /  0mm 0.0 W/m2 CLR
20:21 73.0 °F /  22.8 °C 63.9 °F /  17.7 °C 30.05in /  1017.5hPa Calm     73% 0.00in /  0mm 0.0 W/m2 CLR
20:26 73.0 °F /  22.8 °C 63.9 °F /  17.7 °C 30.05in /  1017.5hPa Calm     73% 0.00in /  0mm 0.0 W/m2 CLR
20:31 73.0 °F /  22.8 °C 63.9 °F /  17.7 °C 30.05in /  1017.5hPa Calm     73% 0.00in /  0mm 0.0 W/m2 CLR
20:36 73.0 °F /  22.8 °C 63.9 °F /  17.7 °C 30.05in /  1017.5hPa Calm     73% 0.00in /  0mm 0.0 W/m2 CLR
20:41 73.0 °F /  22.8 °C 63.9 °F /  17.7 °C 30.05in /  1017.5hPa Calm     73% 0.00in /  0mm 0.0 W/m2 CLR
20:46 73.0 °F /  22.8 °C 63.9 °F /  17.7 °C 30.05in /  1017.5hPa Calm     73% 0.00in /  0mm 0.0 W/m2 CLR
20:51 73.0 °F /  22.8 °C 63.9 °F /  17.7 °C 30.05in /  1017.5hPa Calm     73% 0.00in /  0mm 0.0 W/m2 CLR
20:56 73.0 °F /  22.8 °C 63.9 °F /  17.7 °C 30.05in /  1017.5hPa Calm     73% 0.00in /  0mm 0.0 W/m2 CLR
21:01 71.1 °F /  21.7 °C 62.7 °F /  17.1 °C 30.05in /  1017.5hPa Calm     75% 0.00in /  0mm 0.0 W/m2 CLR
21:06 71.1 °F /  21.7 °C 62.7 °F /  17.1 °C 30.05in /  1017.5hPa Calm     75% 0.00in /  0mm 0.0 W/m2 CLR
21:11 71.1 °F /  21.7 °C 62.7 °F /  17.1 °C 30.05in /  1017.5hPa Calm     75% 0.00in /  0mm 0.0 W/m2 CLR
21:16 71.1 °F /  21.7 °C 62.7 °F /  17.1 °C 30.05in /  1017.5hPa Calm     75% 0.00in /  0mm 0.0 W/m2 CLR
21:21 71.1 °F /  21.7 °C 62.7 °F /  17.1 °C 30.05in /  1017.5hPa Calm     75% 0.00in /  0mm 0.0 W/m2 CLR
21:26 71.1 °F /  21.7 °C 62.7 °F /  17.1 °C 30.05in /  1017.5hPa Calm     75% 0.00in /  0mm 0.0 W/m2 CLR
21:31 71.1 °F /  21.7 °C 62.7 °F /  17.1 °C 30.05in /  1017.5hPa Calm     75% 0.00in /  0mm 0.0 W/m2 CLR
21:36 71.1 °F /  21.7 °C 62.7 °F /  17.1 °C 30.05in /  1017.5hPa Calm     75% 0.00in /  0mm 0.0 W/m2 CLR
21:41 71.1 °F /  21.7 °C 62.7 °F /  17.1 °C 30.05in /  1017.5hPa Calm     75% 0.00in /  0mm 0.0 W/m2 CLR
21:46 71.1 °F /  21.7 °C 62.7 °F /  17.1 °C 30.05in /  1017.5hPa Calm     75% 0.00in /  0mm 0.0 W/m2 CLR
21:51 71.1 °F /  21.7 °C 62.7 °F /  17.1 °C 30.05in /  1017.5hPa Calm     75% 0.00in /  0mm 0.0 W/m2 CLR
21:56 71.1 °F /  21.7 °C 62.7 °F /  17.1 °C 30.05in /  1017.5hPa Calm     75% 0.00in /  0mm 0.0 W/m2 CLR
22:01 68.0 °F /  20 °C 62.6 °F /  17 °C 30.06in /  1017.8hPa Calm     83% 0.00in /  0mm 0.0 W/m2 CLR
22:06 68.0 °F /  20 °C 62.6 °F /  17 °C 30.06in /  1017.8hPa Calm     83% 0.00in /  0mm 0.0 W/m2 CLR
22:12 68.0 °F /  20 °C 62.6 °F /  17 °C 30.06in /  1017.8hPa Calm     83% 0.00in /  0mm 0.0 W/m2 CLR
22:17 68.0 °F /  20 °C 62.6 °F /  17 °C 30.06in /  1017.8hPa Calm     83% 0.00in /  0mm 0.0 W/m2 CLR
22:22 68.0 °F /  20 °C 62.6 °F /  17 °C 30.06in /  1017.8hPa Calm     83% 0.00in /  0mm 0.0 W/m2 CLR
22:23 68.0 °F /  20 °C 62.6 °F /  17 °C 30.06in /  1017.8hPa Calm     83% 0.00in /  0mm 0.0 W/m2 CLR
22:28 68.0 °F /  20 °C 62.6 °F /  17 °C 30.06in /  1017.8hPa Calm     83% 0.00in /  0mm 0.0 W/m2 CLR
22:33 68.0 °F /  20 °C 62.6 °F /  17 °C 30.06in /  1017.8hPa Calm     83% 0.00in /  0mm 0.0 W/m2 CLR
22:38 68.0 °F /  20 °C 62.6 °F /  17 °C 30.06in /  1017.8hPa Calm     83% 0.00in /  0mm 0.0 W/m2 CLR
22:43 68.0 °F /  20 °C 62.6 °F /  17 °C 30.06in /  1017.8hPa Calm     83% 0.00in /  0mm 0.0 W/m2 CLR
22:48 68.0 °F /  20 °C 62.6 °F /  17 °C 30.06in /  1017.8hPa Calm     83% 0.00in /  0mm 0.0 W/m2 CLR
22:53 68.0 °F /  20 °C 62.6 °F /  17 °C 30.06in /  1017.8hPa Calm     83% 0.00in /  0mm 0.0 W/m2 CLR
22:58 68.0 °F /  20 °C 62.6 °F /  17 °C 30.06in /  1017.8hPa Calm     83% 0.00in /  0mm 0.0 W/m2 CLR
23:03 66.9 °F /  19.4 °C 63.9 °F /  17.7 °C 30.06in /  1017.8hPa Calm     90% 0.00in /  0mm 0.0 W/m2 CLR
23:08 66.9 °F /  19.4 °C 63.9 °F /  17.7 °C 30.06in /  1017.8hPa Calm     90% 0.00in /  0mm 0.0 W/m2 CLR
23:13 66.9 °F /  19.4 °C 63.9 °F /  17.7 °C 30.06in /  1017.8hPa Calm     90% 0.00in /  0mm 0.0 W/m2 CLR
23:18 66.9 °F /  19.4 °C 63.9 °F /  17.7 °C 30.06in /  1017.8hPa Calm     90% 0.00in /  0mm 0.0 W/m2 CLR
23:23 66.9 °F /  19.4 °C 63.9 °F /  17.7 °C 30.06in /  1017.8hPa Calm     90% 0.00in /  0mm 0.0 W/m2 CLR
23:28 66.9 °F /  19.4 °C 63.9 °F /  17.7 °C 30.06in /  1017.8hPa Calm     90% 0.00in /  0mm 0.0 W/m2 CLR
23:33 66.9 °F /  19.4 °C 63.9 °F /  17.7 °C 30.06in /  1017.8hPa Calm     90% 0.00in /  0mm 0.0 W/m2 CLR
23:38 66.9 °F /  19.4 °C 63.9 °F /  17.7 °C 30.06in /  1017.8hPa Calm     90% 0.00in /  0mm 0.0 W/m2 CLR
23:43 66.9 °F /  19.4 °C 63.9 °F /  17.7 °C 30.06in /  1017.8hPa Calm     90% 0.00in /  0mm 0.0 W/m2 CLR
23:48 66.9 °F /  19.4 °C 63.9 °F /  17.7 °C 30.06in /  1017.8hPa Calm     90% 0.00in /  0mm 0.0 W/m2 SCT
23:53 66.9 °F /  19.4 °C 63.9 °F /  17.7 °C 30.06in /  1017.8hPa Calm     90% 0.00in /  0mm 0.0 W/m2 SCT
23:58 66.9 °F /  19.4 °C 63.9 °F /  17.7 °C 30.06in /  1017.8hPa Calm     90% 0.00in /  0mm 0.0 W/m2 SCT
Lake Mary, FL, USA
Compliments of Weather Underground - 1.75 mb